sensor_id;sensor_type;location;lat;lon;timestamp;P1;durP1;ratioP1;P2;durP2;ratioP2
80936;SDS011;70395;51.382;7.074;2023-08-20T00:01:06;10.00;;;8.60;;
80936;SDS011;70395;51.382;7.074;2023-08-20T00:03:37;10.73;;;9.60;;
80936;SDS011;70395;51.382;7.074;2023-08-20T00:06:05;10.63;;;9.53;;
80936;SDS011;70395;51.382;7.074;2023-08-20T00:08:32;9.70;;;8.70;;
80936;SDS011;70395;51.382;7.074;2023-08-20T00:10:58;11.60;;;10.40;;
80936;SDS011;70395;51.382;7.074;2023-08-20T00:13:23;10.73;;;9.13;;
80936;SDS011;70395;51.382;7.074;2023-08-20T00:15:49;10.13;;;8.93;;
80936;SDS011;70395;51.382;7.074;2023-08-20T00:18:15;10.40;;;9.40;;
80936;SDS011;70395;51.382;7.074;2023-08-20T00:20:41;9.90;;;9.00;;
80936;SDS011;70395;51.382;7.074;2023-08-20T00:23:10;12.63;;;9.23;;
80936;SDS011;70395;51.382;7.074;2023-08-20T00:25:36;10.07;;;9.13;;
80936;SDS011;70395;51.382;7.074;2023-08-20T00:28:03;12.40;;;9.47;;
80936;SDS011;70395;51.382;7.074;2023-08-20T00:30:29;12.10;;;9.73;;
80936;SDS011;70395;51.382;7.074;2023-08-20T00:32:55;11.90;;;9.77;;
80936;SDS011;70395;51.382;7.074;2023-08-20T00:35:21;12.10;;;9.33;;
80936;SDS011;70395;51.382;7.074;2023-08-20T00:37:47;12.77;;;10.33;;
80936;SDS011;70395;51.382;7.074;2023-08-20T00:40:13;10.87;;;9.23;;
80936;SDS011;70395;51.382;7.074;2023-08-20T00:42:39;11.03;;;9.50;;
80936;SDS011;70395;51.382;7.074;2023-08-20T00:45:05;10.37;;;9.37;;
80936;SDS011;70395;51.382;7.074;2023-08-20T00:47:31;10.10;;;8.80;;
80936;SDS011;70395;51.382;7.074;2023-08-20T00:49:57;14.10;;;7.97;;
80936;SDS011;70395;51.382;7.074;2023-08-20T00:52:23;10.70;;;9.50;;
80936;SDS011;70395;51.382;7.074;2023-08-20T00:54:50;12.67;;;9.30;;
80936;SDS011;70395;51.382;7.074;2023-08-20T00:57:19;11.87;;;9.90;;
80936;SDS011;70395;51.382;7.074;2023-08-20T00:59:47;12.00;;;10.20;;
80936;SDS011;70395;51.382;7.074;2023-08-20T01:02:15;10.43;;;9.53;;
80936;SDS011;70395;51.382;7.074;2023-08-20T01:04:42;11.83;;;9.83;;
80936;SDS011;70395;51.382;7.074;2023-08-20T01:07:21;12.80;;;11.50;;
80936;SDS011;70395;51.382;7.074;2023-08-20T01:13:21;11.80;;;9.30;;
80936;SDS011;70395;51.382;7.074;2023-08-20T01:15:47;13.87;;;8.87;;
80936;SDS011;70395;51.382;7.074;2023-08-20T01:18:12;10.10;;;9.10;;
80936;SDS011;70395;51.382;7.074;2023-08-20T01:20:39;12.67;;;10.47;;
80936;SDS011;70395;51.382;7.074;2023-08-20T01:23:24;11.77;;;10.17;;
80936;SDS011;70395;51.382;7.074;2023-08-20T01:29:25;11.87;;;10.77;;
80936;SDS011;70395;51.382;7.074;2023-08-20T01:31:53;9.50;;;8.50;;
80936;SDS011;70395;51.382;7.074;2023-08-20T01:34:20;9.73;;;8.73;;
80936;SDS011;70395;51.382;7.074;2023-08-20T01:36:47;10.50;;;7.73;;
80936;SDS011;70395;51.382;7.074;2023-08-20T01:39:12;9.50;;;8.60;;
80936;SDS011;70395;51.382;7.074;2023-08-20T01:41:38;11.80;;;9.43;;
80936;SDS011;70395;51.382;7.074;2023-08-20T01:44:05;10.37;;;9.30;;
80936;SDS011;70395;51.382;7.074;2023-08-20T01:46:32;15.27;;;10.40;;
80936;SDS011;70395;51.382;7.074;2023-08-20T01:48:58;13.93;;;9.03;;
80936;SDS011;70395;51.382;7.074;2023-08-20T01:51:23;10.10;;;9.00;;
80936;SDS011;70395;51.382;7.074;2023-08-20T01:53:49;11.87;;;10.70;;
80936;SDS011;70395;51.382;7.074;2023-08-20T01:56:15;13.00;;;10.30;;
80936;SDS011;70395;51.382;7.074;2023-08-20T01:58:41;9.67;;;8.53;;
80936;SDS011;70395;51.382;7.074;2023-08-20T02:01:07;12.57;;;9.73;;
80936;SDS011;70395;51.382;7.074;2023-08-20T02:03:34;11.57;;;9.90;;
80936;SDS011;70395;51.382;7.074;2023-08-20T02:06:01;10.83;;;9.83;;
80936;SDS011;70395;51.382;7.074;2023-08-20T02:08:27;11.47;;;10.30;;
80936;SDS011;70395;51.382;7.074;2023-08-20T02:10:59;11.43;;;9.70;;
80936;SDS011;70395;51.382;7.074;2023-08-20T02:13:29;9.97;;;8.83;;
80936;SDS011;70395;51.382;7.074;2023-08-20T02:15:59;10.60;;;9.37;;
80936;SDS011;70395;51.382;7.074;2023-08-20T02:18:27;13.53;;;9.80;;
80936;SDS011;70395;51.382;7.074;2023-08-20T02:20:53;11.53;;;9.13;;
80936;SDS011;70395;51.382;7.074;2023-08-20T02:23:19;10.13;;;7.80;;
80936;SDS011;70395;51.382;7.074;2023-08-20T02:25:46;14.43;;;10.23;;
80936;SDS011;70395;51.382;7.074;2023-08-20T02:28:12;14.70;;;9.00;;
80936;SDS011;70395;51.382;7.074;2023-08-20T02:30:41;15.67;;;10.10;;
80936;SDS011;70395;51.382;7.074;2023-08-20T02:33:09;13.00;;;9.30;;
80936;SDS011;70395;51.382;7.074;2023-08-20T02:35:35;13.30;;;10.53;;
80936;SDS011;70395;51.382;7.074;2023-08-20T02:38:05;10.20;;;9.10;;
80936;SDS011;70395;51.382;7.074;2023-08-20T02:40:31;10.90;;;7.97;;
80936;SDS011;70395;51.382;7.074;2023-08-20T02:42:57;16.30;;;10.27;;
80936;SDS011;70395;51.382;7.074;2023-08-20T02:45:23;13.23;;;8.77;;
80936;SDS011;70395;51.382;7.074;2023-08-20T02:47:49;12.50;;;9.47;;
80936;SDS011;70395;51.382;7.074;2023-08-20T02:50:15;10.33;;;9.33;;
80936;SDS011;70395;51.382;7.074;2023-08-20T02:52:42;9.90;;;9.00;;
80936;SDS011;70395;51.382;7.074;2023-08-20T02:55:08;9.93;;;9.03;;
80936;SDS011;70395;51.382;7.074;2023-08-20T02:57:34;11.07;;;9.40;;
80936;SDS011;70395;51.382;7.074;2023-08-20T03:00:00;11.43;;;10.23;;
80936;SDS011;70395;51.382;7.074;2023-08-20T03:02:25;10.80;;;9.60;;
80936;SDS011;70395;51.382;7.074;2023-08-20T03:04:51;15.03;;;10.13;;
80936;SDS011;70395;51.382;7.074;2023-08-20T03:07:18;12.97;;;9.67;;
80936;SDS011;70395;51.382;7.074;2023-08-20T03:09:43;9.67;;;8.67;;
80936;SDS011;70395;51.382;7.074;2023-08-20T03:12:09;9.37;;;8.53;;
80936;SDS011;70395;51.382;7.074;2023-08-20T03:14:35;10.17;;;9.17;;
80936;SDS011;70395;51.382;7.074;2023-08-20T03:17:01;10.57;;;9.47;;
80936;SDS011;70395;51.382;7.074;2023-08-20T03:19:29;11.33;;;10.20;;
80936;SDS011;70395;51.382;7.074;2023-08-20T03:21:59;10.03;;;9.03;;
80936;SDS011;70395;51.382;7.074;2023-08-20T03:24:25;11.80;;;8.70;;
80936;SDS011;70395;51.382;7.074;2023-08-20T03:26:50;16.70;;;10.10;;
80936;SDS011;70395;51.382;7.074;2023-08-20T03:29:16;11.47;;;10.33;;
80936;SDS011;70395;51.382;7.074;2023-08-20T03:31:42;10.43;;;9.13;;
80936;SDS011;70395;51.382;7.074;2023-08-20T03:34:08;10.00;;;8.83;;
80936;SDS011;70395;51.382;7.074;2023-08-20T03:36:34;11.87;;;10.57;;
80936;SDS011;70395;51.382;7.074;2023-08-20T03:39:00;14.80;;;10.40;;
80936;SDS011;70395;51.382;7.074;2023-08-20T03:41:26;11.23;;;10.13;;
80936;SDS011;70395;51.382;7.074;2023-08-20T03:43:52;12.20;;;10.90;;
80936;SDS011;70395;51.382;7.074;2023-08-20T03:46:17;11.83;;;9.43;;
80936;SDS011;70395;51.382;7.074;2023-08-20T03:48:43;13.63;;;12.17;;
80936;SDS011;70395;51.382;7.074;2023-08-20T03:51:09;11.60;;;9.77;;
80936;SDS011;70395;51.382;7.074;2023-08-20T03:53:35;11.50;;;10.00;;
80936;SDS011;70395;51.382;7.074;2023-08-20T03:56:00;12.33;;;9.60;;
80936;SDS011;70395;51.382;7.074;2023-08-20T03:58:26;10.87;;;9.77;;
80936;SDS011;70395;51.382;7.074;2023-08-20T04:00:52;11.90;;;10.80;;
80936;SDS011;70395;51.382;7.074;2023-08-20T04:03:18;13.17;;;11.37;;
80936;SDS011;70395;51.382;7.074;2023-08-20T04:05:44;12.90;;;10.03;;
80936;SDS011;70395;51.382;7.074;2023-08-20T04:08:10;12.77;;;11.30;;
80936;SDS011;70395;51.382;7.074;2023-08-20T04:10:42;16.03;;;10.90;;
80936;SDS011;70395;51.382;7.074;2023-08-20T04:13:11;11.70;;;10.50;;
80936;SDS011;70395;51.382;7.074;2023-08-20T04:15:39;11.40;;;9.73;;
80936;SDS011;70395;51.382;7.074;2023-08-20T04:18:06;13.93;;;10.27;;
80936;SDS011;70395;51.382;7.074;2023-08-20T04:20:32;16.60;;;12.37;;
80936;SDS011;70395;51.382;7.074;2023-08-20T04:22:58;16.03;;;11.60;;
80936;SDS011;70395;51.382;7.074;2023-08-20T04:25:24;12.50;;;10.23;;
80936;SDS011;70395;51.382;7.074;2023-08-20T04:27:51;11.43;;;10.23;;
80936;SDS011;70395;51.382;7.074;2023-08-20T04:30:17;11.20;;;10.10;;
80936;SDS011;70395;51.382;7.074;2023-08-20T04:32:43;10.60;;;9.50;;
80936;SDS011;70395;51.382;7.074;2023-08-20T04:35:09;15.47;;;10.63;;
80936;SDS011;70395;51.382;7.074;2023-08-20T04:37:35;11.90;;;10.83;;
80936;SDS011;70395;51.382;7.074;2023-08-20T04:40:01;12.53;;;10.43;;
80936;SDS011;70395;51.382;7.074;2023-08-20T04:42:30;18.00;;;11.07;;
80936;SDS011;70395;51.382;7.074;2023-08-20T04:44:56;12.93;;;10.23;;
80936;SDS011;70395;51.382;7.074;2023-08-20T04:47:22;13.50;;;11.23;;
80936;SDS011;70395;51.382;7.074;2023-08-20T04:49:48;13.53;;;12.13;;
80936;SDS011;70395;51.382;7.074;2023-08-20T04:52:14;12.67;;;11.37;;
80936;SDS011;70395;51.382;7.074;2023-08-20T04:54:40;11.80;;;10.00;;
80936;SDS011;70395;51.382;7.074;2023-08-20T04:57:05;14.87;;;11.93;;
80936;SDS011;70395;51.382;7.074;2023-08-20T04:59:31;12.63;;;10.50;;
80936;SDS011;70395;51.382;7.074;2023-08-20T05:01:57;12.57;;;11.27;;
80936;SDS011;70395;51.382;7.074;2023-08-20T05:04:23;15.60;;;11.10;;
80936;SDS011;70395;51.382;7.074;2023-08-20T05:06:48;15.40;;;11.17;;
80936;SDS011;70395;51.382;7.074;2023-08-20T05:09:14;13.90;;;11.60;;
80936;SDS011;70395;51.382;7.074;2023-08-20T05:11:41;12.93;;;9.60;;
80936;SDS011;70395;51.382;7.074;2023-08-20T05:14:07;19.33;;;12.40;;
80936;SDS011;70395;51.382;7.074;2023-08-20T05:16:33;11.50;;;10.30;;
80936;SDS011;70395;51.382;7.074;2023-08-20T05:18:58;13.40;;;11.10;;
80936;SDS011;70395;51.382;7.074;2023-08-20T05:21:24;11.07;;;10.07;;
80936;SDS011;70395;51.382;7.074;2023-08-20T05:23:50;12.57;;;11.27;;
80936;SDS011;70395;51.382;7.074;2023-08-20T05:26:16;14.90;;;10.97;;
80936;SDS011;70395;51.382;7.074;2023-08-20T05:28:41;13.33;;;10.60;;
80936;SDS011;70395;51.382;7.074;2023-08-20T05:31:07;10.87;;;9.77;;
80936;SDS011;70395;51.382;7.074;2023-08-20T05:33:33;14.70;;;10.80;;
80936;SDS011;70395;51.382;7.074;2023-08-20T05:35:59;15.60;;;11.60;;
80936;SDS011;70395;51.382;7.074;2023-08-20T05:38:25;12.13;;;10.77;;
80936;SDS011;70395;51.382;7.074;2023-08-20T05:40:51;11.97;;;10.87;;
80936;SDS011;70395;51.382;7.074;2023-08-20T05:43:16;11.80;;;8.87;;
80936;SDS011;70395;51.382;7.074;2023-08-20T05:45:42;14.60;;;11.50;;
80936;SDS011;70395;51.382;7.074;2023-08-20T05:48:08;12.87;;;11.50;;
80936;SDS011;70395;51.382;7.074;2023-08-20T05:50:34;11.93;;;10.77;;
80936;SDS011;70395;51.382;7.074;2023-08-20T05:53:00;12.03;;;10.83;;
80936;SDS011;70395;51.382;7.074;2023-08-20T05:55:26;13.97;;;12.17;;
80936;SDS011;70395;51.382;7.074;2023-08-20T05:57:52;13.00;;;11.70;;
80936;SDS011;70395;51.382;7.074;2023-08-20T06:00:17;19.87;;;13.10;;
80936;SDS011;70395;51.382;7.074;2023-08-20T06:02:43;12.40;;;11.20;;
80936;SDS011;70395;51.382;7.074;2023-08-20T06:05:09;15.40;;;11.97;;
80936;SDS011;70395;51.382;7.074;2023-08-20T06:07:36;14.67;;;13.10;;
80936;SDS011;70395;51.382;7.074;2023-08-20T06:10:02;16.60;;;14.00;;
80936;SDS011;70395;51.382;7.074;2023-08-20T06:12:28;16.47;;;14.13;;
80936;SDS011;70395;51.382;7.074;2023-08-20T06:14:53;16.50;;;12.43;;
80936;SDS011;70395;51.382;7.074;2023-08-20T06:17:19;17.73;;;12.73;;
80936;SDS011;70395;51.382;7.074;2023-08-20T06:19:45;15.67;;;12.67;;
80936;SDS011;70395;51.382;7.074;2023-08-20T06:22:11;18.20;;;13.00;;
80936;SDS011;70395;51.382;7.074;2023-08-20T06:24:37;14.50;;;12.90;;
80936;SDS011;70395;51.382;7.074;2023-08-20T06:27:03;14.97;;;13.43;;
80936;SDS011;70395;51.382;7.074;2023-08-20T06:29:29;14.43;;;12.03;;
80936;SDS011;70395;51.382;7.074;2023-08-20T06:31:54;14.97;;;13.57;;
80936;SDS011;70395;51.382;7.074;2023-08-20T06:34:20;15.23;;;13.60;;
80936;SDS011;70395;51.382;7.074;2023-08-20T06:36:47;16.00;;;13.63;;
80936;SDS011;70395;51.382;7.074;2023-08-20T06:39:13;15.33;;;13.80;;
80936;SDS011;70395;51.382;7.074;2023-08-20T06:41:40;15.40;;;13.80;;
80936;SDS011;70395;51.382;7.074;2023-08-20T06:44:06;15.70;;;14.20;;
80936;SDS011;70395;51.382;7.074;2023-08-20T06:46:32;14.57;;;13.00;;
80936;SDS011;70395;51.382;7.074;2023-08-20T06:48:58;14.43;;;12.63;;
80936;SDS011;70395;51.382;7.074;2023-08-20T06:51:24;14.80;;;13.30;;
80936;SDS011;70395;51.382;7.074;2023-08-20T06:53:50;13.27;;;11.93;;
80936;SDS011;70395;51.382;7.074;2023-08-20T06:56:16;12.63;;;11.40;;
80936;SDS011;70395;51.382;7.074;2023-08-20T06:58:42;16.73;;;13.07;;
80936;SDS011;70395;51.382;7.074;2023-08-20T07:01:08;13.17;;;11.73;;
80936;SDS011;70395;51.382;7.074;2023-08-20T07:03:35;12.93;;;11.60;;
80936;SDS011;70395;51.382;7.074;2023-08-20T07:06:07;12.33;;;10.73;;
80936;SDS011;70395;51.382;7.074;2023-08-20T07:08:34;12.60;;;11.30;;
80936;SDS011;70395;51.382;7.074;2023-08-20T07:11:01;13.20;;;11.83;;
80936;SDS011;70395;51.382;7.074;2023-08-20T07:13:28;13.87;;;12.47;;
80936;SDS011;70395;51.382;7.074;2023-08-20T07:15:53;15.00;;;12.00;;
80936;SDS011;70395;51.382;7.074;2023-08-20T07:18:20;13.13;;;11.20;;
80936;SDS011;70395;51.382;7.074;2023-08-20T07:20:45;13.30;;;11.97;;
80936;SDS011;70395;51.382;7.074;2023-08-20T07:23:11;12.53;;;11.33;;
80936;SDS011;70395;51.382;7.074;2023-08-20T07:25:38;12.00;;;10.87;;
80936;SDS011;70395;51.382;7.074;2023-08-20T07:28:06;13.47;;;10.20;;
80936;SDS011;70395;51.382;7.074;2023-08-20T07:30:33;10.30;;;9.40;;
80936;SDS011;70395;51.382;7.074;2023-08-20T07:33:01;11.33;;;10.20;;
80936;SDS011;70395;51.382;7.074;2023-08-20T07:35:28;12.83;;;10.27;;
80936;SDS011;70395;51.382;7.074;2023-08-20T07:37:54;11.23;;;10.10;;
80936;SDS011;70395;51.382;7.074;2023-08-20T07:40:20;11.33;;;10.03;;
80936;SDS011;70395;51.382;7.074;2023-08-20T07:42:46;10.70;;;9.50;;
80936;SDS011;70395;51.382;7.074;2023-08-20T07:45:11;10.93;;;9.00;;
80936;SDS011;70395;51.382;7.074;2023-08-20T07:47:38;9.13;;;8.30;;
80936;SDS011;70395;51.382;7.074;2023-08-20T07:50:04;9.23;;;8.37;;
80936;SDS011;70395;51.382;7.074;2023-08-20T07:52:31;9.87;;;8.93;;
80936;SDS011;70395;51.382;7.074;2023-08-20T07:54:58;9.33;;;8.40;;
80936;SDS011;70395;51.382;7.074;2023-08-20T07:57:24;9.70;;;8.80;;
80936;SDS011;70395;51.382;7.074;2023-08-20T07:59:50;9.70;;;8.90;;
80936;SDS011;70395;51.382;7.074;2023-08-20T08:02:16;9.37;;;8.40;;
80936;SDS011;70395;51.382;7.074;2023-08-20T08:04:43;9.77;;;8.77;;
80936;SDS011;70395;51.382;7.074;2023-08-20T08:07:09;11.27;;;8.33;;
80936;SDS011;70395;51.382;7.074;2023-08-20T08:09:36;10.70;;;9.63;;
80936;SDS011;70395;51.382;7.074;2023-08-20T08:12:02;8.93;;;8.03;;
80936;SDS011;70395;51.382;7.074;2023-08-20T08:14:29;8.53;;;7.80;;
80936;SDS011;70395;51.382;7.074;2023-08-20T08:16:55;10.17;;;8.40;;
80936;SDS011;70395;51.382;7.074;2023-08-20T08:19:21;8.87;;;7.97;;
80936;SDS011;70395;51.382;7.074;2023-08-20T08:21:47;8.13;;;7.43;;
80936;SDS011;70395;51.382;7.074;2023-08-20T08:24:13;8.50;;;7.70;;
80936;SDS011;70395;51.382;7.074;2023-08-20T08:26:40;11.43;;;8.63;;
80936;SDS011;70395;51.382;7.074;2023-08-20T08:29:07;11.30;;;7.87;;
80936;SDS011;70395;51.382;7.074;2023-08-20T08:31:34;6.87;;;6.17;;
80936;SDS011;70395;51.382;7.074;2023-08-20T08:33:59;7.10;;;6.40;;
80936;SDS011;70395;51.382;7.074;2023-08-20T08:36:28;8.33;;;6.87;;
80936;SDS011;70395;51.382;7.074;2023-08-20T08:38:54;7.50;;;6.63;;
80936;SDS011;70395;51.382;7.074;2023-08-20T08:41:23;7.13;;;6.47;;
80936;SDS011;70395;51.382;7.074;2023-08-20T08:43:51;9.57;;;6.83;;
80936;SDS011;70395;51.382;7.074;2023-08-20T08:46:20;5.10;;;4.70;;
80936;SDS011;70395;51.382;7.074;2023-08-20T08:48:48;6.77;;;6.13;;
80936;SDS011;70395;51.382;7.074;2023-08-20T08:51:14;7.20;;;6.50;;
80936;SDS011;70395;51.382;7.074;2023-08-20T08:53:44;7.40;;;6.80;;
80936;SDS011;70395;51.382;7.074;2023-08-20T08:56:12;7.60;;;6.40;;
80936;SDS011;70395;51.382;7.074;2023-08-20T08:58:37;6.80;;;6.30;;
80936;SDS011;70395;51.382;7.074;2023-08-20T09:01:03;7.57;;;6.73;;
80936;SDS011;70395;51.382;7.074;2023-08-20T09:03:29;7.13;;;6.47;;
80936;SDS011;70395;51.382;7.074;2023-08-20T09:05:56;5.87;;;5.27;;
80936;SDS011;70395;51.382;7.074;2023-08-20T09:08:29;5.63;;;5.13;;
80936;SDS011;70395;51.382;7.074;2023-08-20T09:10:57;6.83;;;6.17;;
80936;SDS011;70395;51.382;7.074;2023-08-20T09:13:26;6.67;;;5.97;;
80936;SDS011;70395;51.382;7.074;2023-08-20T09:16:02;8.83;;;6.23;;
80936;SDS011;70395;51.382;7.074;2023-08-20T09:18:30;6.80;;;6.00;;
80936;SDS011;70395;51.382;7.074;2023-08-20T09:20:59;6.13;;;5.53;;
80936;SDS011;70395;51.382;7.074;2023-08-20T09:23:28;6.10;;;5.63;;
80936;SDS011;70395;51.382;7.074;2023-08-20T09:25:55;6.97;;;6.30;;
80936;SDS011;70395;51.382;7.074;2023-08-20T09:28:21;7.93;;;6.43;;
80936;SDS011;70395;51.382;7.074;2023-08-20T09:30:59;6.57;;;6.03;;
80936;SDS011;70395;51.382;7.074;2023-08-20T09:33:29;5.77;;;5.33;;
80936;SDS011;70395;51.382;7.074;2023-08-20T09:35:55;7.00;;;6.17;;
80936;SDS011;70395;51.382;7.074;2023-08-20T09:38:21;7.10;;;6.50;;
80936;SDS011;70395;51.382;7.074;2023-08-20T09:40:49;6.33;;;5.73;;
80936;SDS011;70395;51.382;7.074;2023-08-20T09:43:17;7.67;;;6.00;;
80936;SDS011;70395;51.382;7.074;2023-08-20T09:45:46;5.70;;;5.30;;
80936;SDS011;70395;51.382;7.074;2023-08-20T09:48:18;7.13;;;6.53;;
80936;SDS011;70395;51.382;7.074;2023-08-20T09:50:46;7.60;;;6.90;;
80936;SDS011;70395;51.382;7.074;2023-08-20T09:53:27;6.40;;;5.90;;
80936;SDS011;70395;51.382;7.074;2023-08-20T09:56:27;7.07;;;6.30;;
80936;SDS011;70395;51.382;7.074;2023-08-20T09:58:54;5.50;;;5.10;;
80936;SDS011;70395;51.382;7.074;2023-08-20T10:01:23;6.30;;;5.80;;
80936;SDS011;70395;51.382;7.074;2023-08-20T10:03:51;6.00;;;5.50;;
80936;SDS011;70395;51.382;7.074;2023-08-20T10:06:17;7.33;;;6.83;;
80936;SDS011;70395;51.382;7.074;2023-08-20T10:08:43;7.37;;;6.73;;
80936;SDS011;70395;51.382;7.074;2023-08-20T10:11:11;5.83;;;5.33;;
80936;SDS011;70395;51.382;7.074;2023-08-20T10:13:38;8.37;;;7.03;;
80936;SDS011;70395;51.382;7.074;2023-08-20T10:16:04;7.57;;;6.87;;
80936;SDS011;70395;51.382;7.074;2023-08-20T10:18:30;7.93;;;7.33;;
80936;SDS011;70395;51.382;7.074;2023-08-20T10:21:00;7.93;;;7.13;;
80936;SDS011;70395;51.382;7.074;2023-08-20T10:23:27;7.10;;;6.60;;
80936;SDS011;70395;51.382;7.074;2023-08-20T10:25:53;7.53;;;6.83;;
80936;SDS011;70395;51.382;7.074;2023-08-20T10:28:23;7.60;;;6.07;;
80936;SDS011;70395;51.382;7.074;2023-08-20T10:33:58;7.97;;;7.27;;
80936;SDS011;70395;51.382;7.074;2023-08-20T10:36:23;7.60;;;7.00;;
80936;SDS011;70395;51.382;7.074;2023-08-20T10:38:54;8.50;;;7.80;;
80936;SDS011;70395;51.382;7.074;2023-08-20T10:41:25;8.30;;;7.70;;
80936;SDS011;70395;51.382;7.074;2023-08-20T10:43:52;6.80;;;6.30;;
80936;SDS011;70395;51.382;7.074;2023-08-20T10:46:22;7.70;;;7.00;;
80936;SDS011;70395;51.382;7.074;2023-08-20T10:59:23;8.20;;;7.60;;
80936;SDS011;70395;51.382;7.074;2023-08-20T11:01:55;7.90;;;7.10;;
80936;SDS011;70395;51.382;7.074;2023-08-20T11:04:24;8.13;;;7.53;;
80936;SDS011;70395;51.382;7.074;2023-08-20T11:06:54;8.47;;;7.67;;
80936;SDS011;70395;51.382;7.074;2023-08-20T11:09:24;8.97;;;8.27;;
80936;SDS011;70395;51.382;7.074;2023-08-20T11:11:55;8.70;;;7.97;;
80936;SDS011;70395;51.382;7.074;2023-08-20T11:14:22;8.90;;;8.07;;
80936;SDS011;70395;51.382;7.074;2023-08-20T11:16:48;8.57;;;7.90;;
80936;SDS011;70395;51.382;7.074;2023-08-20T11:19:19;10.40;;;9.60;;
80936;SDS011;70395;51.382;7.074;2023-08-20T11:21:47;10.53;;;9.63;;
80936;SDS011;70395;51.382;7.074;2023-08-20T11:24:15;11.17;;;10.07;;
80936;SDS011;70395;51.382;7.074;2023-08-20T11:26:43;9.93;;;8.93;;
80936;SDS011;70395;51.382;7.074;2023-08-20T11:29:09;11.60;;;10.60;;
80936;SDS011;70395;51.382;7.074;2023-08-20T11:31:38;14.50;;;13.23;;
80936;SDS011;70395;51.382;7.074;2023-08-20T11:34:05;13.10;;;12.03;;
80936;SDS011;70395;51.382;7.074;2023-08-20T11:36:32;14.90;;;13.40;;
80936;SDS011;70395;51.382;7.074;2023-08-20T11:39:00;15.03;;;13.43;;
80936;SDS011;70395;51.382;7.074;2023-08-20T11:41:26;16.17;;;14.63;;
80936;SDS011;70395;51.382;7.074;2023-08-20T11:43:52;15.53;;;14.27;;
80936;SDS011;70395;51.382;7.074;2023-08-20T11:46:19;16.50;;;14.57;;
80936;SDS011;70395;51.382;7.074;2023-08-20T11:51:39;14.63;;;13.33;;
80936;SDS011;70395;51.382;7.074;2023-08-20T11:54:09;12.47;;;11.37;;
80936;SDS011;70395;51.382;7.074;2023-08-20T11:56:42;12.33;;;11.23;;
80936;SDS011;70395;51.382;7.074;2023-08-20T11:59:16;13.10;;;11.90;;
80936;SDS011;70395;51.382;7.074;2023-08-20T12:01:51;13.20;;;12.20;;
80936;SDS011;70395;51.382;7.074;2023-08-20T12:04:23;12.07;;;11.17;;
80936;SDS011;70395;51.382;7.074;2023-08-20T12:07:01;11.07;;;10.27;;
80936;SDS011;70395;51.382;7.074;2023-08-20T12:09:38;11.43;;;10.53;;
80936;SDS011;70395;51.382;7.074;2023-08-20T12:12:05;12.77;;;11.77;;
80936;SDS011;70395;51.382;7.074;2023-08-20T12:14:32;12.40;;;11.50;;
80936;SDS011;70395;51.382;7.074;2023-08-20T12:17:01;13.93;;;12.83;;
80936;SDS011;70395;51.382;7.074;2023-08-20T12:19:28;12.50;;;11.43;;
80936;SDS011;70395;51.382;7.074;2023-08-20T12:21:54;12.13;;;11.13;;
80936;SDS011;70395;51.382;7.074;2023-08-20T12:24:22;11.40;;;10.60;;
80936;SDS011;70395;51.382;7.074;2023-08-20T12:26:48;11.50;;;10.60;;
80936;SDS011;70395;51.382;7.074;2023-08-20T12:29:15;11.27;;;10.53;;
80936;SDS011;70395;51.382;7.074;2023-08-20T12:31:41;9.70;;;8.90;;
80936;SDS011;70395;51.382;7.074;2023-08-20T12:34:07;8.10;;;7.50;;
80936;SDS011;70395;51.382;7.074;2023-08-20T12:36:34;8.00;;;7.40;;
80936;SDS011;70395;51.382;7.074;2023-08-20T12:39:00;7.37;;;6.73;;
80936;SDS011;70395;51.382;7.074;2023-08-20T12:41:26;8.23;;;7.53;;
80936;SDS011;70395;51.382;7.074;2023-08-20T12:43:51;8.80;;;8.17;;
80936;SDS011;70395;51.382;7.074;2023-08-20T12:46:17;8.70;;;7.80;;
80936;SDS011;70395;51.382;7.074;2023-08-20T12:48:43;8.30;;;7.60;;
80936;SDS011;70395;51.382;7.074;2023-08-20T12:51:10;8.70;;;8.00;;
80936;SDS011;70395;51.382;7.074;2023-08-20T12:53:38;8.10;;;7.50;;
80936;SDS011;70395;51.382;7.074;2023-08-20T12:56:04;10.20;;;7.60;;
80936;SDS011;70395;51.382;7.074;2023-08-20T12:58:30;8.43;;;7.83;;
80936;SDS011;70395;51.382;7.074;2023-08-20T13:00:56;8.67;;;8.07;;
80936;SDS011;70395;51.382;7.074;2023-08-20T13:03:22;8.10;;;7.50;;
80936;SDS011;70395;51.382;7.074;2023-08-20T13:05:48;7.40;;;6.70;;
80936;SDS011;70395;51.382;7.074;2023-08-20T13:08:15;7.87;;;7.20;;
80936;SDS011;70395;51.382;7.074;2023-08-20T13:10:41;9.00;;;8.20;;
80936;SDS011;70395;51.382;7.074;2023-08-20T13:13:11;8.87;;;8.10;;
80936;SDS011;70395;51.382;7.074;2023-08-20T13:15:39;8.20;;;7.53;;
80936;SDS011;70395;51.382;7.074;2023-08-20T13:18:05;8.57;;;7.83;;
80936;SDS011;70395;51.382;7.074;2023-08-20T13:20:32;7.77;;;7.07;;
80936;SDS011;70395;51.382;7.074;2023-08-20T13:22:58;9.20;;;8.40;;
80936;SDS011;70395;51.382;7.074;2023-08-20T13:25:24;8.30;;;7.70;;
80936;SDS011;70395;51.382;7.074;2023-08-20T13:27:50;9.10;;;8.03;;
80936;SDS011;70395;51.382;7.074;2023-08-20T13:30:15;8.43;;;7.57;;
80936;SDS011;70395;51.382;7.074;2023-08-20T13:32:42;8.10;;;7.40;;
80936;SDS011;70395;51.382;7.074;2023-08-20T13:35:08;8.47;;;7.87;;
80936;SDS011;70395;51.382;7.074;2023-08-20T13:37:34;7.73;;;7.13;;
80936;SDS011;70395;51.382;7.074;2023-08-20T13:40:00;7.77;;;7.13;;
80936;SDS011;70395;51.382;7.074;2023-08-20T13:42:26;7.50;;;6.90;;
80936;SDS011;70395;51.382;7.074;2023-08-20T13:44:52;8.33;;;7.50;;
80936;SDS011;70395;51.382;7.074;2023-08-20T13:47:18;7.40;;;6.90;;
80936;SDS011;70395;51.382;7.074;2023-08-20T13:49:43;7.70;;;7.00;;
80936;SDS011;70395;51.382;7.074;2023-08-20T13:52:10;7.07;;;6.60;;
80936;SDS011;70395;51.382;7.074;2023-08-20T13:54:36;7.80;;;7.00;;
80936;SDS011;70395;51.382;7.074;2023-08-20T13:57:02;7.70;;;7.00;;
80936;SDS011;70395;51.382;7.074;2023-08-20T13:59:29;9.73;;;8.93;;
80936;SDS011;70395;51.382;7.074;2023-08-20T14:01:56;14.10;;;9.77;;
80936;SDS011;70395;51.382;7.074;2023-08-20T14:04:23;8.70;;;8.00;;
80936;SDS011;70395;51.382;7.074;2023-08-20T14:06:49;7.90;;;7.20;;
80936;SDS011;70395;51.382;7.074;2023-08-20T14:09:15;7.20;;;6.60;;
80936;SDS011;70395;51.382;7.074;2023-08-20T14:11:44;8.20;;;7.40;;
80936;SDS011;70395;51.382;7.074;2023-08-20T14:14:13;8.07;;;7.47;;
80936;SDS011;70395;51.382;7.074;2023-08-20T14:16:39;8.20;;;7.50;;
80936;SDS011;70395;51.382;7.074;2023-08-20T14:19:05;8.63;;;7.97;;
80936;SDS011;70395;51.382;7.074;2023-08-20T14:21:30;7.57;;;6.87;;
80936;SDS011;70395;51.382;7.074;2023-08-20T14:23:56;8.10;;;7.43;;
80936;SDS011;70395;51.382;7.074;2023-08-20T14:26:22;8.57;;;7.77;;
80936;SDS011;70395;51.382;7.074;2023-08-20T14:28:48;7.87;;;7.17;;
80936;SDS011;70395;51.382;7.074;2023-08-20T14:31:14;8.03;;;6.80;;
80936;SDS011;70395;51.382;7.074;2023-08-20T14:33:40;7.90;;;7.30;;
80936;SDS011;70395;51.382;7.074;2023-08-20T14:36:06;9.10;;;6.70;;
80936;SDS011;70395;51.382;7.074;2023-08-20T14:38:32;9.33;;;6.30;;
80936;SDS011;70395;51.382;7.074;2023-08-20T14:41:01;6.67;;;6.07;;
80936;SDS011;70395;51.382;7.074;2023-08-20T14:43:28;7.40;;;6.70;;
80936;SDS011;70395;51.382;7.074;2023-08-20T14:45:55;6.73;;;6.17;;
80936;SDS011;70395;51.382;7.074;2023-08-20T14:48:22;6.53;;;6.03;;
80936;SDS011;70395;51.382;7.074;2023-08-20T14:50:48;6.90;;;6.30;;
80936;SDS011;70395;51.382;7.074;2023-08-20T14:53:15;7.53;;;6.53;;
80936;SDS011;70395;51.382;7.074;2023-08-20T14:55:41;7.20;;;6.60;;
80936;SDS011;70395;51.382;7.074;2023-08-20T14:58:07;6.37;;;5.77;;